createdAt,value
2022-12-26T00:02:41.401Z,-3.58193
2022-12-26T00:07:43.048Z,-3.15101
2022-12-26T00:12:44.876Z,-3.01161
2022-12-26T00:17:46.591Z,-3.26597
2022-12-26T00:22:48.457Z,-3.08687
2022-12-26T00:27:50.138Z,-2.94619
2022-12-26T00:32:52.040Z,-3.49936
2022-12-26T00:37:53.923Z,-3.88582
2022-12-26T00:42:55.582Z,-3.44348
2022-12-26T00:47:57.267Z,-2.71565
2022-12-26T00:52:59.061Z,-2.70517
2022-12-26T00:58:00.721Z,-2.74137
2022-12-26T01:03:02.534Z,-2.42318
2022-12-26T01:08:22.509Z,-2.49844
2022-12-26T01:13:26.111Z,-2.99763
2022-12-26T01:18:27.869Z,-3.40474
2022-12-26T01:23:29.585Z,-2.99541
2022-12-26T01:28:31.265Z,-2.75947
2022-12-26T01:33:32.909Z,-2.25107
2022-12-26T01:38:34.778Z,-2.48987
2022-12-26T01:43:36.664Z,-3.02939
2022-12-26T01:48:38.462Z,-3.26343
2022-12-26T01:53:40.183Z,-2.74264
2022-12-26T01:58:42.663Z,-3.29042
2022-12-26T02:03:44.342Z,-3.41934
2022-12-26T02:08:46.052Z,-3.07448
2022-12-26T02:13:47.778Z,-2.86077
2022-12-26T02:18:49.366Z,-2.70072
2022-12-26T02:23:51.030Z,-3.27105
2022-12-26T02:28:52.661Z,-3.23358
2022-12-26T02:33:54.277Z,-3.42061
2022-12-26T02:38:55.910Z,-2.67691
2022-12-26T02:48:58.136Z,-2.62578
2022-12-26T02:53:59.869Z,-2.92555
2022-12-26T02:59:01.551Z,-2.56703
2022-12-26T03:04:03.325Z,-2.60387
2022-12-26T03:09:05.056Z,-2.93698
2022-12-26T03:14:06.769Z,-2.75471
2022-12-26T03:19:08.411Z,-2.89634
2022-12-26T03:24:10.075Z,-3.36123
2022-12-26T03:29:17.127Z,-3.74102
2022-12-26T03:34:20.620Z,-3.73149
2022-12-26T03:39:22.210Z,-3.53461
2022-12-26T03:44:23.841Z,-3.24342
2022-12-26T03:49:25.498Z,-2.77249
2022-12-26T03:54:27.161Z,-3.51747
2022-12-26T03:59:28.858Z,-3.31138
2022-12-26T04:04:30.561Z,-2.89919
2022-12-26T04:09:33.356Z,-2.32442
2022-12-26T04:14:35.026Z,-2.60101
2022-12-26T04:19:36.691Z,-2.62673
2022-12-26T04:24:38.344Z,-3.11386
2022-12-26T04:29:40.069Z,-4.11763
2022-12-26T04:34:41.691Z,-3.18848
2022-12-26T04:39:43.391Z,-3.67656
2022-12-26T04:44:45.125Z,-3.59368
2022-12-26T04:49:46.779Z,-2.70199
2022-12-26T04:54:48.957Z,-3.45777
2022-12-26T04:59:51.758Z,-2.83092
2022-12-26T05:04:53.406Z,-3.4511
2022-12-26T05:09:55.008Z,-3.16022
2022-12-26T05:14:56.643Z,-1.97257
2022-12-26T05:19:58.297Z,-2.13707
2022-12-26T05:25:00.098Z,-2.27139
2022-12-26T05:30:02.055Z,-2.8522
2022-12-26T05:35:03.855Z,-2.88268
2022-12-26T05:40:05.621Z,-2.2625
2022-12-26T05:45:07.243Z,-2.41842
2022-12-26T05:50:08.889Z,-2.70676
2022-12-26T05:55:10.654Z,-2.41524
2022-12-26T06:00:12.429Z,-3.37616
2022-12-26T06:05:14.138Z,-4.01538
2022-12-26T06:10:15.833Z,-4.12144
2022-12-26T06:15:17.537Z,-3.28375
2022-12-26T06:20:19.141Z,-3.31392
2022-12-26T06:25:20.868Z,-3.53811
2022-12-26T06:30:22.794Z,-3.21643
2022-12-26T06:35:24.425Z,-2.4778
2022-12-26T06:40:26.076Z,-2.33808
2022-12-26T06:45:27.675Z,-2.12436
2022-12-26T06:50:29.342Z,-1.98718
2022-12-26T06:55:31.019Z,-1.79887
2022-12-26T07:00:32.852Z,-2.29172
2022-12-26T07:05:34.603Z,-2.4108
2022-12-26T07:10:36.268Z,-3.24723
2022-12-26T07:15:37.988Z,-3.53588
2022-12-26T07:20:39.704Z,-2.93031
2022-12-26T07:25:41.356Z,-2.48955
2022-12-26T07:30:43.012Z,-2.87284
2022-12-26T07:35:44.727Z,-2.0164
2022-12-26T07:40:46.374Z,-3.42347
2022-12-26T07:45:48.176Z,-2.96683
2022-12-26T07:50:49.895Z,-2.40635
2022-12-26T07:55:51.573Z,-1.96463
2022-12-26T08:00:53.324Z,-1.93415
2022-12-26T08:05:55.086Z,-2.57243
2022-12-26T08:10:56.750Z,-2.11134
2022-12-26T08:15:58.442Z,-1.72551
2022-12-26T08:21:00.121Z,-2.51718
2022-12-26T08:26:03.343Z,-3.65846
2022-12-26T08:31:04.972Z,-2.47971
2022-12-26T08:36:06.821Z,-2.33554
2022-12-26T08:41:08.469Z,-3.84962
2022-12-26T08:46:10.253Z,-3.30915
2022-12-26T08:51:11.896Z,-3.93314
2022-12-26T08:56:13.553Z,-3.225
2022-12-26T09:01:15.362Z,-2.37364
2022-12-26T09:06:17.059Z,-2.44001
2022-12-26T09:11:18.675Z,-2.71978
2022-12-26T09:16:20.357Z,-1.63279
2022-12-26T09:21:22.057Z,-2.60292
2022-12-26T09:26:23.718Z,-2.57688
2022-12-26T09:31:25.425Z,-3.17292
2022-12-26T09:36:27.139Z,-2.70168
2022-12-26T09:41:28.766Z,-2.60641
2022-12-26T09:46:30.515Z,-2.29299
2022-12-26T09:51:32.205Z,-2.3638
2022-12-26T09:57:01.706Z,-1.91001
2022-12-26T10:02:04.747Z,-2.0002
2022-12-26T10:07:06.591Z,-3.20023
2022-12-26T10:12:08.247Z,-3.25358
2022-12-26T10:17:09.908Z,-2.23614
2022-12-26T10:22:11.815Z,-2.23614
2022-12-26T10:27:13.502Z,-1.98019
2022-12-26T10:32:15.214Z,-1.15391
2022-12-26T10:37:16.919Z,-1.6782
2022-12-26T10:42:18.671Z,-2.12246
2022-12-26T10:47:20.580Z,-1.91954
2022-12-26T10:52:22.211Z,-1.89795
2022-12-26T10:57:23.830Z,-1.6782
2022-12-26T11:02:25.734Z,-1.61437
2022-12-26T11:07:27.413Z,-1.10247
2022-12-26T11:12:29.076Z,-2.46542
2022-12-26T11:17:30.858Z,-1.52037
2022-12-26T11:22:32.470Z,-2.2806
2022-12-26T11:27:34.099Z,-2.22662
2022-12-26T11:32:35.755Z,-2.98144
2022-12-26T11:37:37.364Z,-3.03542
2022-12-26T11:42:38.987Z,-1.93542
2022-12-26T11:47:40.621Z,-1.61056
2022-12-26T11:52:42.249Z,-2.09388
2022-12-26T11:57:44.086Z,-2.54258
2022-12-26T12:02:47.430Z,-1.27776
2022-12-26T12:07:49.167Z,-1.50259
2022-12-26T12:12:50.802Z,-2.48034
2022-12-26T12:17:52.468Z,-1.43908
2022-12-26T12:22:54.171Z,-0.89383
2022-12-26T12:27:55.842Z,-1.8627
2022-12-26T12:32:57.551Z,-1.43209
2022-12-26T12:37:59.245Z,-0.78777
2022-12-26T12:43:00.998Z,-1.36922
2022-12-26T12:48:02.923Z,-1.37207
2022-12-26T12:53:04.757Z,-0.67154
2022-12-26T12:58:06.455Z,-0.74299
2022-12-26T13:03:08.053Z,-0.72013
2022-12-26T13:08:09.719Z,-1.32095
2022-12-26T13:13:11.417Z,-2.87887
2022-12-26T13:18:13.361Z,-2.91888
2022-12-26T13:23:15.186Z,-1.75473
2022-12-26T13:28:16.846Z,-1.36382
2022-12-26T13:33:18.469Z,-1.226
2022-12-26T13:38:20.090Z,-1.38065
2022-12-26T13:43:21.734Z,-1.78236
2022-12-26T13:48:23.427Z,-1.4756
2022-12-26T13:53:25.092Z,-1.57118
2022-12-26T13:58:26.757Z,-1.19075
2022-12-26T14:03:28.557Z,-0.76903
2022-12-26T14:08:30.490Z,-1.01101
2022-12-26T14:13:32.118Z,-0.64201
2022-12-26T14:18:34.150Z,-1.21933
2022-12-26T14:23:35.744Z,-1.4394
2022-12-26T14:28:37.330Z,-1.24886
2022-12-26T14:33:38.948Z,-2.39397
2022-12-26T14:38:40.598Z,-2.5664
2022-12-26T14:43:43.603Z,-1.2279
2022-12-26T14:48:45.267Z,-1.13295
2022-12-26T14:53:46.972Z,-1.32857
2022-12-26T14:58:49.983Z,-1.17932
2022-12-26T15:03:51.655Z,-1.33016
2022-12-26T15:08:53.307Z,-1.0307
2022-12-26T15:13:55.021Z,-0.74426
2022-12-26T15:18:56.708Z,-0.75188
2022-12-26T15:23:58.442Z,-0.36446
2022-12-26T15:29:00.141Z,-0.38605
2022-12-26T15:34:01.746Z,-1.02276
2022-12-26T15:39:03.378Z,-0.76173
2022-12-26T15:44:05.022Z,-1.54864
2022-12-26T15:49:06.631Z,-2.39937
2022-12-26T15:54:08.304Z,-1.54959
2022-12-26T15:59:09.963Z,-1.23743
2022-12-26T16:04:11.566Z,-2.00687
2022-12-26T16:09:13.198Z,-1.22663
2022-12-26T16:14:14.866Z,-0.55309
2022-12-26T16:19:16.499Z,-0.09167
2022-12-26T16:24:18.179Z,-1.52736
2022-12-26T16:29:20.058Z,-1.46226
2022-12-26T16:34:21.748Z,-1.72805
2022-12-26T16:39:23.424Z,-1.47623
2022-12-26T16:44:29.991Z,-1.45877
2022-12-26T16:49:32.616Z,-1.91478
2022-12-26T16:54:34.294Z,-0.60517
2022-12-26T16:59:36.003Z,-1.07198
2022-12-26T17:04:37.759Z,-1.18694
2022-12-26T17:09:39.415Z,-1.34286
2022-12-26T17:14:41.040Z,-1.44733
2022-12-26T17:19:42.752Z,-1.81062
2022-12-26T17:24:44.412Z,-1.3889
2022-12-26T17:29:46.058Z,-1.06563
2022-12-26T17:34:47.740Z,-0.23045
2022-12-26T17:39:49.393Z,-0.05896
2022-12-26T17:44:51.064Z,-0.07071
2022-12-26T17:49:52.757Z,-0.58834
2022-12-26T17:54:54.452Z,-0.5153
2022-12-26T17:59:56.099Z,-0.3743
2022-12-26T18:04:57.711Z,0.02043
2022-12-26T18:09:59.566Z,-1.2876
2022-12-26T18:15:02.323Z,-1.7325
2022-12-26T18:20:04.300Z,-0.77983
2022-12-26T18:25:06.166Z,-1.40637
2022-12-26T18:30:07.850Z,-0.37272
2022-12-26T18:35:09.472Z,0.05822
2022-12-26T18:40:11.127Z,-0.13836
2022-12-26T18:45:12.754Z,0.03567
2022-12-26T18:50:14.422Z,-0.33683
2022-12-26T18:55:16.078Z,-0.96084
2022-12-26T19:00:17.722Z,-1.12025
2022-12-26T19:05:19.561Z,-0.63661
2022-12-26T19:10:21.212Z,-0.01705
2022-12-26T19:15:23.109Z,0.45263
2022-12-26T19:20:24.764Z,0.30052
2022-12-26T19:25:26.417Z,0.2948
2022-12-26T19:30:28.951Z,0.20461
2022-12-26T19:35:32.905Z,-0.11708
2022-12-26T19:40:34.593Z,-0.58516
2022-12-26T19:45:36.249Z,-1.19424
2022-12-26T19:50:37.976Z,-1.41971
2022-12-26T19:55:39.656Z,-1.55181
2022-12-26T20:00:41.311Z,-0.5388
2022-12-26T20:05:43.083Z,-0.51371
2022-12-26T20:10:44.741Z,0.42691
2022-12-26T20:15:46.388Z,0.10649
2022-12-26T20:20:48.045Z,-0.34223
2022-12-26T20:25:49.721Z,-0.81698
2022-12-26T20:30:51.555Z,-1.34286
2022-12-26T20:35:53.478Z,-1.91224
2022-12-26T20:40:55.119Z,-1.39811
2022-12-26T20:45:56.753Z,-0.6382
2022-12-26T20:50:58.441Z,-0.15138
2022-12-26T20:56:00.335Z,0.12395
2022-12-26T21:01:02.138Z,0.10934
2022-12-26T21:06:03.935Z,0.19794
2022-12-26T21:11:05.737Z,0.60919
2022-12-26T21:16:09.941Z,0.68286
2022-12-26T21:21:11.944Z,0.989
2022-12-26T21:26:13.831Z,0.81211
2022-12-26T21:31:15.530Z,0.32402
2022-12-26T21:36:17.295Z,0.30591
2022-12-26T21:41:19.067Z,0.34085
2022-12-26T21:46:20.805Z,0.45835
2022-12-26T21:51:22.489Z,0.331
2022-12-26T21:56:24.569Z,0.09823
2022-12-26T22:01:26.435Z,-0.24728
2022-12-26T22:06:28.147Z,-0.20885
2022-12-26T22:11:29.799Z,0.18334
2022-12-26T22:16:31.457Z,0.61617
2022-12-26T22:21:33.065Z,0.87721
2022-12-26T22:26:34.715Z,0.84577
2022-12-26T22:31:36.455Z,0.29829
2022-12-26T22:36:38.165Z,0.84165
2022-12-26T22:41:39.890Z,0.63523
2022-12-26T22:46:41.630Z,0.65174
2022-12-26T22:51:43.509Z,0.7378
2022-12-26T22:56:45.133Z,0.50471
2022-12-26T23:01:46.876Z,0.26844
2022-12-26T23:06:48.610Z,0.5733
2022-12-26T23:11:50.286Z,0.45041
2022-12-26T23:16:51.969Z,0.53456
2022-12-26T23:21:53.589Z,0.67683
2022-12-26T23:26:55.232Z,0.84736
2022-12-26T23:31:56.870Z,0.75082
2022-12-26T23:36:58.498Z,0.31163
2022-12-26T23:42:00.132Z,0.33354
2022-12-26T23:47:01.808Z,0.5768
2022-12-26T23:52:03.544Z,0.36339
2022-12-26T23:57:05.404Z,0.83593
